sensor_id;sensor_type;location;lat;lon;timestamp;pressure;altitude;pressure_sealevel;temperature;humidity
26178;BME280;13924;47.670;10.310;2023-05-13T00:00:42;93330;;;11.1;100.0
26178;BME280;13924;47.670;10.310;2023-05-13T00:15:48;93330;;;11.1;100.0
26178;BME280;13924;47.670;10.310;2023-05-13T00:30:52;93360;;;11.1;100.0
26178;BME280;13924;47.670;10.310;2023-05-13T00:45:49;93360;;;11.0;100.0
26178;BME280;13924;47.670;10.310;2023-05-13T01:00:58;93390;;;11.0;100.0
26178;BME280;13924;47.670;10.310;2023-05-13T01:01:38;93380;;;10.9;100.0
26178;BME280;13924;47.670;10.310;2023-05-13T01:15:56;93440;;;10.8;100.0
26178;BME280;13924;47.670;10.310;2023-05-13T01:30:52;93440;;;10.7;100.0
26178;BME280;13924;47.670;10.310;2023-05-13T01:45:50;93470;;;10.6;100.0
26178;BME280;13924;47.670;10.310;2023-05-13T02:00:52;93480;;;10.7;100.0
26178;BME280;13924;47.670;10.310;2023-05-13T02:15:50;93490;;;10.6;100.0
26178;BME280;13924;47.670;10.310;2023-05-13T02:30:52;93500;;;10.5;100.0
26178;BME280;13924;47.670;10.310;2023-05-13T02:45:50;93500;;;10.5;100.0
26178;BME280;13924;47.670;10.310;2023-05-13T03:00:54;93490;;;10.6;100.0
26178;BME280;13924;47.670;10.310;2023-05-13T03:15:51;93470;;;10.7;100.0
26178;BME280;13924;47.670;10.310;2023-05-13T03:30:52;93450;;;10.8;100.0
26178;BME280;13924;47.670;10.310;2023-05-13T03:45:53;93440;;;10.8;100.0
26178;BME280;13924;47.670;10.310;2023-05-13T03:54:22;93450;;;10.8;100.0
26178;BME280;13924;47.670;10.310;2023-05-13T04:09:23;93460;;;10.8;100.0
26178;BME280;13924;47.670;10.310;2023-05-13T04:24:26;93460;;;10.8;100.0
26178;BME280;13924;47.670;10.310;2023-05-13T04:39:24;93440;;;10.7;100.0
26178;BME280;13924;47.670;10.310;2023-05-13T04:54:23;93460;;;10.8;100.0
26178;BME280;13924;47.670;10.310;2023-05-13T05:09:24;93450;;;10.7;100.0
26178;BME280;13924;47.670;10.310;2023-05-13T05:24:25;93460;;;10.8;100.0
26178;BME280;13924;47.670;10.310;2023-05-13T05:39:26;93450;;;10.9;100.0
26178;BME280;13924;47.670;10.310;2023-05-13T05:54:27;93440;;;10.9;100.0
26178;BME280;13924;47.670;10.310;2023-05-13T06:09:27;93450;;;11.1;100.0
26178;BME280;13924;47.670;10.310;2023-05-13T06:24:33;93450;;;11.1;100.0
26178;BME280;13924;47.670;10.310;2023-05-13T06:39:28;93460;;;11.1;100.0
26178;BME280;13924;47.670;10.310;2023-05-13T06:54:31;93480;;;11.0;100.0
26178;BME280;13924;47.670;10.310;2023-05-13T07:09:30;93470;;;11.0;100.0
26178;BME280;13924;47.670;10.310;2023-05-13T07:24:30;93450;;;11.1;100.0
26178;BME280;13924;47.670;10.310;2023-05-13T07:39:31;93460;;;11.2;100.0
26178;BME280;13924;47.670;10.310;2023-05-13T07:54:32;93430;;;11.3;100.0
26178;BME280;13924;47.670;10.310;2023-05-13T08:09:33;93420;;;11.4;100.0
26178;BME280;13924;47.670;10.310;2023-05-13T08:24:38;93410;;;11.6;100.0
26178;BME280;13924;47.670;10.310;2023-05-13T08:39:45;93410;;;11.6;100.0
26178;BME280;13924;47.670;10.310;2023-05-13T08:54:35;93390;;;11.6;100.0
26178;BME280;13924;47.670;10.310;2023-05-13T09:09:35;93400;;;11.8;100.0
26178;BME280;13924;47.670;10.310;2023-05-13T09:24:37;93390;;;11.9;100.0
26178;BME280;13924;47.670;10.310;2023-05-13T09:39:39;93390;;;11.8;100.0
26178;BME280;13924;47.670;10.310;2023-05-13T09:54:44;93390;;;11.8;100.0
26178;BME280;13924;47.670;10.310;2023-05-13T10:09:39;93430;;;12.1;100.0
26178;BME280;13924;47.670;10.310;2023-05-13T10:24:40;93430;;;12.4;100.0
26178;BME280;13924;47.670;10.310;2023-05-13T10:40:00;93410;;;12.7;100.0
26178;BME280;13924;47.670;10.310;2023-05-13T10:54:40;93410;;;13.0;100.0
26178;BME280;13924;47.670;10.310;2023-05-13T11:09:47;93390;;;13.2;100.0
26178;BME280;13924;47.670;10.310;2023-05-13T11:24:45;93360;;;13.5;100.0
26178;BME280;13924;47.670;10.310;2023-05-13T11:39:41;93350;;;13.3;100.0
26178;BME280;13924;47.670;10.310;2023-05-13T11:54:48;93350;;;13.3;100.0
26178;BME280;13924;47.670;10.310;2023-05-13T12:09:43;93360;;;13.0;100.0
26178;BME280;13924;47.670;10.310;2023-05-13T12:24:46;93360;;;13.0;100.0
26178;BME280;13924;47.670;10.310;2023-05-13T12:40:08;93450;;;12.9;100.0
26178;BME280;13924;47.670;10.310;2023-05-13T12:54:46;93500;;;12.3;100.0
26178;BME280;13924;47.670;10.310;2023-05-13T13:09:45;93620;;;12.0;100.0
26178;BME280;13924;47.670;10.310;2023-05-13T13:24:46;93720;;;11.1;100.0
26178;BME280;13924;47.670;10.310;2023-05-13T13:39:48;93820;;;11.4;100.0
26178;BME280;13924;47.670;10.310;2023-05-13T13:54:47;93800;;;11.7;100.0
26178;BME280;13924;47.670;10.310;2023-05-13T14:09:48;93780;;;11.8;100.0
26178;BME280;13924;47.670;10.310;2023-05-13T14:24:49;93780;;;11.8;100.0
26178;BME280;13924;47.670;10.310;2023-05-13T14:39:49;93740;;;11.9;100.0
26178;BME280;13924;47.670;10.310;2023-05-13T14:55:00;93740;;;11.9;100.0
26178;BME280;13924;47.670;10.310;2023-05-13T15:09:51;93630;;;12.6;100.0
26178;BME280;13924;47.670;10.310;2023-05-13T15:24:51;93490;;;13.1;100.0
26178;BME280;13924;47.670;10.310;2023-05-13T15:39:52;93480;;;12.7;100.0
26178;BME280;13924;47.670;10.310;2023-05-13T15:54:53;93520;;;13.2;100.0
26178;BME280;13924;47.670;10.310;2023-05-13T16:09:53;93400;;;12.8;100.0
26178;BME280;13924;47.670;10.310;2023-05-13T16:24:56;93460;;;12.5;100.0
26178;BME280;13924;47.670;10.310;2023-05-13T16:39:54;93500;;;12.1;100.0
26178;BME280;13924;47.670;10.310;2023-05-13T16:54:55;93500;;;12.1;100.0
26178;BME280;13924;47.670;10.310;2023-05-13T17:09:55;93450;;;12.1;100.0
26178;BME280;13924;47.670;10.310;2023-05-13T17:24:56;93470;;;11.9;100.0
26178;BME280;13924;47.670;10.310;2023-05-13T17:39:57;93460;;;11.7;100.0
26178;BME280;13924;47.670;10.310;2023-05-13T17:54:57;93470;;;11.6;100.0
26178;BME280;13924;47.670;10.310;2023-05-13T18:09:58;93500;;;11.4;100.0
26178;BME280;13924;47.670;10.310;2023-05-13T18:25:04;93510;;;11.4;100.0
26178;BME280;13924;47.670;10.310;2023-05-13T18:40:14;93510;;;11.4;100.0
26178;BME280;13924;47.670;10.310;2023-05-13T18:55:03;93520;;;11.5;100.0
26178;BME280;13924;47.670;10.310;2023-05-13T19:10:07;93540;;;11.6;100.0
26178;BME280;13924;47.670;10.310;2023-05-13T19:40:12;93550;;;11.4;100.0
26178;BME280;13924;47.670;10.310;2023-05-13T19:55:04;93610;;;11.2;100.0
26178;BME280;13924;47.670;10.310;2023-05-13T20:10:05;93640;;;11.2;100.0
26178;BME280;13924;47.670;10.310;2023-05-13T20:25:05;93640;;;11.2;100.0
26178;BME280;13924;47.670;10.310;2023-05-13T20:40:07;93650;;;11.3;100.0
26178;BME280;13924;47.670;10.310;2023-05-13T20:55:14;93650;;;11.3;100.0
26178;BME280;13924;47.670;10.310;2023-05-13T21:10:08;93590;;;11.3;100.0
26178;BME280;13924;47.670;10.310;2023-05-13T21:25:14;93600;;;11.2;100.0
26178;BME280;13924;47.670;10.310;2023-05-13T21:40:17;93600;;;11.2;100.0
26178;BME280;13924;47.670;10.310;2023-05-13T21:55:15;93570;;;11.2;100.0
26178;BME280;13924;47.670;10.310;2023-05-13T22:00:36;93580;;;11.1;100.0
26178;BME280;13924;47.670;10.310;2023-05-13T22:15:39;93580;;;11.1;100.0
26178;BME280;13924;47.670;10.310;2023-05-13T22:30:36;93540;;;10.8;100.0
26178;BME280;13924;47.670;10.310;2023-05-13T22:45:37;93610;;;10.9;100.0
26178;BME280;13924;47.670;10.310;2023-05-13T23:00:36;93600;;;10.8;100.0
26178;BME280;13924;47.670;10.310;2023-05-13T23:15:36;93600;;;10.5;100.0
26178;BME280;13924;47.670;10.310;2023-05-13T23:30:38;93640;;;10.4;100.0
